Terminal Aerodrome Forecast
Issued by NWS

Home | Current Version | Previous Version | Text Only | Print | Product List | Glossary On
Versions: 1 2 3 4 5 6 7 8 9 10 11 12 13 14 15 16 17 18 19 20 21 22 23 24
000
FTUS44 KLZK 030300 AAA
TAFHRO
TAF AMD
KHRO 030307Z 0303/0324 22004KT P6SM VCTS FEW040CB SCT100
      TEMPO 0304/0308 -TSRA SCT025 OVC040CB
     FM030800 30004KT P6SM VCSH SCT025 SCT035
      TEMPO 0308/0312 3SM BR
     FM031600 32006KT P6SM VCTS SCT035 BKN050CB=

USA.gov is the U.S. government's official web portal to all federal, state and local government web resources and services.